createdAt,value
2023-01-23T00:00:15.804Z,20.77
2023-01-23T00:02:43.740Z,22.38
2023-01-23T00:05:12.197Z,28.05
2023-01-23T00:07:41.398Z,24.25
2023-01-23T00:10:10.668Z,24.23
2023-01-23T00:12:38.520Z,20.38
2023-01-23T00:15:07.713Z,22.05
2023-01-23T00:17:35.520Z,22.42
2023-01-23T00:20:04.445Z,22.85
2023-01-23T00:22:32.313Z,27.52
2023-01-23T00:25:01.482Z,23.85
2023-01-23T00:27:29.531Z,20.63
2023-01-23T00:29:57.364Z,23.25
2023-01-23T00:32:25.197Z,23.15
2023-01-23T00:34:53.021Z,24.30
2023-01-23T00:37:20.882Z,20.58
2023-01-23T00:39:50.911Z,27.98
2023-01-23T00:42:20.102Z,23.67
2023-01-23T00:44:47.892Z,23.48
2023-01-23T00:47:15.792Z,23.85
2023-01-23T00:49:43.583Z,25.67
2023-01-23T00:52:11.387Z,26.23
2023-01-23T00:54:39.416Z,27.85
2023-01-23T00:57:07.287Z,25.73
2023-01-23T00:59:36.610Z,24.27
2023-01-23T01:02:04.852Z,27.27
2023-01-23T01:04:32.595Z,25.42
2023-01-23T01:07:00.597Z,26.00
2023-01-23T01:09:28.693Z,25.98
2023-01-23T01:11:56.600Z,23.15
2023-01-23T01:14:24.489Z,26.60
2023-01-23T01:16:53.771Z,25.05
2023-01-23T01:19:21.526Z,23.00
2023-01-23T01:21:49.377Z,28.85
2023-01-23T01:24:17.124Z,24.20
2023-01-23T01:26:44.903Z,23.05
2023-01-23T01:29:12.680Z,22.27
2023-01-23T01:31:40.989Z,24.50
2023-01-23T01:34:10.208Z,21.75
2023-01-23T01:36:37.994Z,25.00
2023-01-23T01:39:05.801Z,24.17
2023-01-23T01:41:33.576Z,23.83
2023-01-23T01:44:01.560Z,24.58
2023-01-23T01:46:29.975Z,26.00
2023-01-23T01:49:07.537Z,25.17
2023-01-23T01:51:39.896Z,24.83
2023-01-23T01:54:14.650Z,25.75
2023-01-23T01:56:48.993Z,25.50
2023-01-23T01:59:19.046Z,70.82
2023-01-23T02:01:51.811Z,32.30
2023-01-23T02:04:20.198Z,27.05
2023-01-23T02:06:51.886Z,24.98
2023-01-23T02:09:25.639Z,26.55
2023-01-23T02:11:54.212Z,28.65
2023-01-23T02:14:24.433Z,24.27
2023-01-23T02:16:52.920Z,28.15
2023-01-23T02:19:38.610Z,28.45
2023-01-23T02:22:19.243Z,27.70
2023-01-23T02:24:55.833Z,28.55
2023-01-23T02:27:25.025Z,27.17
2023-01-23T02:29:56.190Z,28.50
2023-01-23T02:32:25.619Z,23.73
2023-01-23T02:34:56.026Z,30.60
2023-01-23T02:37:30.137Z,28.48
2023-01-23T02:39:57.947Z,29.10
2023-01-23T02:42:27.499Z,28.33
2023-01-23T02:44:56.778Z,28.30
2023-01-23T02:47:25.400Z,28.35
2023-01-23T02:49:53.347Z,27.33
2023-01-23T02:52:21.146Z,31.67
2023-01-23T02:54:48.908Z,26.35
2023-01-23T02:57:16.768Z,25.42
2023-01-23T03:00:03.545Z,25.17
2023-01-23T03:02:31.706Z,26.77
2023-01-23T03:04:59.484Z,28.50
2023-01-23T03:07:27.257Z,25.70
2023-01-23T03:09:55.018Z,26.33
2023-01-23T03:12:22.802Z,27.75
2023-01-23T03:14:54.845Z,28.38
2023-01-23T03:17:22.867Z,26.80
2023-01-23T03:19:50.725Z,28.38
2023-01-23T03:22:18.697Z,29.25
2023-01-23T03:24:46.698Z,26.98
2023-01-23T03:27:14.529Z,27.65
2023-01-23T03:29:59.910Z,26.15
2023-01-23T03:32:29.433Z,26.60
2023-01-23T03:34:57.378Z,29.75
2023-01-23T03:37:25.140Z,27.60
2023-01-23T03:40:10.339Z,26.40
2023-01-23T03:42:38.197Z,30.63
2023-01-23T03:45:06.950Z,27.80
2023-01-23T03:47:36.263Z,30.88
2023-01-23T03:50:04.609Z,28.75
2023-01-23T03:52:32.776Z,28.00
2023-01-23T03:55:00.540Z,28.45
2023-01-23T03:57:28.466Z,28.80
2023-01-23T03:59:56.301Z,40.45
2023-01-23T04:02:24.726Z,29.77
2023-01-23T04:04:53.921Z,28.75
2023-01-23T04:07:21.742Z,26.90
2023-01-23T04:09:49.953Z,30.45
2023-01-23T04:12:18.041Z,27.70
2023-01-23T04:14:45.849Z,29.55
2023-01-23T04:17:13.695Z,28.77
2023-01-23T04:19:41.578Z,28.55
2023-01-23T04:22:10.877Z,29.85
2023-01-23T04:24:38.694Z,26.75
2023-01-23T04:27:06.452Z,24.65
2023-01-23T04:29:34.396Z,26.85
2023-01-23T04:32:02.375Z,27.58
2023-01-23T04:34:30.234Z,28.95
2023-01-23T04:36:58.159Z,25.70
2023-01-23T04:39:27.377Z,26.75
2023-01-23T04:41:55.103Z,27.95
2023-01-23T04:44:23.001Z,24.52
2023-01-23T04:46:53.051Z,25.88
2023-01-23T04:49:21.793Z,24.15
2023-01-23T04:51:50.221Z,24.52
2023-01-23T04:54:19.284Z,28.23
2023-01-23T04:56:49.092Z,26.55
2023-01-23T04:59:17.756Z,25.83
2023-01-23T05:01:45.907Z,29.38
2023-01-23T05:04:14.149Z,27.52
2023-01-23T05:06:42.060Z,28.23
2023-01-23T05:09:09.889Z,28.58
2023-01-23T05:11:37.619Z,25.83
2023-01-23T05:14:07.047Z,27.60
2023-01-23T05:16:34.932Z,26.42
2023-01-23T05:19:02.762Z,27.83
2023-01-23T05:21:30.556Z,27.20
2023-01-23T05:23:58.317Z,27.80
2023-01-23T05:26:26.034Z,27.58
2023-01-23T05:28:53.929Z,28.35
2023-01-23T05:31:23.109Z,29.33
2023-01-23T05:33:50.907Z,28.88
2023-01-23T05:36:18.830Z,28.35
2023-01-23T05:38:46.800Z,30.92
2023-01-23T05:41:14.606Z,29.00
2023-01-23T05:43:42.408Z,26.92
2023-01-23T05:46:10.199Z,31.40
2023-01-23T05:48:39.341Z,27.00
2023-01-23T05:51:07.342Z,29.30
2023-01-23T05:53:35.337Z,26.92
2023-01-23T05:56:06.957Z,25.92
2023-01-23T05:58:34.810Z,26.13
2023-01-23T06:01:03.580Z,26.70
2023-01-23T06:03:31.801Z,26.13
2023-01-23T06:06:02.290Z,26.13
2023-01-23T06:08:30.465Z,23.88
2023-01-23T06:10:59.738Z,25.23
2023-01-23T06:13:27.964Z,24.25
2023-01-23T06:15:56.683Z,27.63
2023-01-23T06:18:25.434Z,25.75
2023-01-23T06:21:00.933Z,25.20
2023-01-23T06:23:29.403Z,25.25
2023-01-23T06:26:00.639Z,21.73
2023-01-23T06:28:28.396Z,26.52
2023-01-23T06:30:56.636Z,25.40
2023-01-23T06:33:24.473Z,29.75
2023-01-23T06:36:00.181Z,28.40
2023-01-23T06:38:28.412Z,29.00
2023-01-23T06:40:56.413Z,24.40
2023-01-23T06:43:25.195Z,25.92
2023-01-23T06:45:53.003Z,24.45
2023-01-23T06:48:20.919Z,25.00
2023-01-23T06:50:48.947Z,31.40
2023-01-23T06:53:19.410Z,22.92
2023-01-23T06:55:47.689Z,25.55
2023-01-23T06:58:15.478Z,25.40
2023-01-23T07:00:44.594Z,27.13
2023-01-23T07:03:13.205Z,25.17
2023-01-23T07:05:43.295Z,24.33
2023-01-23T07:08:11.571Z,22.33
2023-01-23T07:10:41.325Z,24.70
2023-01-23T07:13:11.170Z,23.33
2023-01-23T07:15:41.010Z,22.27
2023-01-23T07:18:10.085Z,20.67
2023-01-23T07:20:38.493Z,20.30
2023-01-23T07:23:06.403Z,24.90
2023-01-23T07:25:34.335Z,20.65
2023-01-23T07:28:03.552Z,22.67
2023-01-23T07:30:31.316Z,23.85
2023-01-23T07:32:59.311Z,24.50
2023-01-23T07:35:27.592Z,24.05
2023-01-23T07:37:55.397Z,23.73
2023-01-23T07:40:24.606Z,25.45
2023-01-23T07:42:52.418Z,21.65
2023-01-23T07:45:21.589Z,24.42
2023-01-23T07:47:49.364Z,26.85
2023-01-23T07:50:17.241Z,28.73
2023-01-23T07:52:44.993Z,24.27
2023-01-23T07:55:12.968Z,26.50
2023-01-23T07:57:40.876Z,30.15
2023-01-23T08:00:10.734Z,26.27
2023-01-23T08:02:40.051Z,27.13
2023-01-23T08:05:08.920Z,25.98
2023-01-23T08:07:36.674Z,26.27
2023-01-23T08:10:04.778Z,22.77
2023-01-23T08:12:32.676Z,23.60
2023-01-23T08:15:00.460Z,27.73
2023-01-23T08:17:28.375Z,22.13
2023-01-23T08:19:57.587Z,20.35
2023-01-23T08:22:25.373Z,21.30
2023-01-23T08:24:53.176Z,22.20
2023-01-23T08:27:21.078Z,19.02
2023-01-23T08:29:48.932Z,23.52
2023-01-23T08:32:16.866Z,20.13
2023-01-23T08:34:44.595Z,23.10
2023-01-23T08:37:13.761Z,21.92
2023-01-23T08:39:42.173Z,22.15
2023-01-23T08:42:10.142Z,23.75
2023-01-23T08:44:37.866Z,23.75
2023-01-23T08:47:05.712Z,21.75
2023-01-23T08:49:33.459Z,18.58
2023-01-23T08:52:01.311Z,17.23
2023-01-23T08:54:30.520Z,19.30
2023-01-23T08:56:58.789Z,17.40
2023-01-23T08:59:26.682Z,26.52
2023-01-23T09:01:54.483Z,16.70
2023-01-23T09:04:22.256Z,18.77
2023-01-23T09:06:49.966Z,19.05
2023-01-23T09:09:18.328Z,17.95
2023-01-23T09:11:47.556Z,19.17
2023-01-23T09:14:15.267Z,20.55
2023-01-23T09:16:43.117Z,19.52
2023-01-23T09:19:12.720Z,21.08
2023-01-23T09:21:40.850Z,18.38
2023-01-23T09:24:09.333Z,19.05
2023-01-23T09:26:37.635Z,16.48
2023-01-23T09:29:07.000Z,21.60
2023-01-23T09:31:34.963Z,20.85
2023-01-23T09:34:03.891Z,21.92
2023-01-23T09:36:42.453Z,19.85
2023-01-23T09:39:11.233Z,23.65
2023-01-23T09:41:40.217Z,24.63
2023-01-23T09:44:16.730Z,22.52
2023-01-23T09:46:48.914Z,22.08
2023-01-23T09:49:25.839Z,20.83
2023-01-23T09:51:59.892Z,24.42
2023-01-23T09:54:35.642Z,24.42
2023-01-23T09:57:13.206Z,26.52
2023-01-23T09:59:59.835Z,25.15
2023-01-23T10:02:28.048Z,22.63
2023-01-23T10:04:58.089Z,25.30
2023-01-23T10:07:49.427Z,25.52
2023-01-23T10:10:41.777Z,22.57
2023-01-23T10:16:05.633Z,22.98
2023-01-23T10:18:38.350Z,24.63
2023-01-23T10:21:18.161Z,26.85
2023-01-23T10:23:53.238Z,28.13
2023-01-23T10:26:24.352Z,26.92
2023-01-23T10:28:57.681Z,28.50
2023-01-23T10:31:34.750Z,27.55
2023-01-23T10:34:14.294Z,27.45
2023-01-23T10:36:54.942Z,28.55
2023-01-23T10:39:28.799Z,28.50
2023-01-23T10:42:02.487Z,37.35
2023-01-23T10:44:31.121Z,33.40
2023-01-23T10:47:03.777Z,27.67
2023-01-23T10:49:35.403Z,29.77
2023-01-23T10:52:03.651Z,31.92
2023-01-23T10:54:33.185Z,30.05
2023-01-23T10:57:03.080Z,29.40
2023-01-23T10:59:35.530Z,32.60
2023-01-23T11:02:23.011Z,30.95
2023-01-23T11:04:52.862Z,29.63
2023-01-23T11:07:23.515Z,28.50
2023-01-23T11:09:57.431Z,32.72
2023-01-23T11:12:27.743Z,30.02
2023-01-23T11:15:14.748Z,28.90
2023-01-23T11:17:44.636Z,29.52
2023-01-23T11:20:23.380Z,30.73
2023-01-23T11:23:01.949Z,30.38
2023-01-23T11:25:32.013Z,28.75
2023-01-23T11:28:01.764Z,33.13
2023-01-23T11:30:42.484Z,28.92
2023-01-23T11:33:27.499Z,28.58
2023-01-23T11:36:03.476Z,32.80
2023-01-23T11:38:37.731Z,32.00
2023-01-23T11:41:13.057Z,35.55
2023-01-23T11:43:41.670Z,34.97
2023-01-23T11:46:34.476Z,35.42
2023-01-23T11:49:20.567Z,35.40
2023-01-23T11:51:56.797Z,36.72
2023-01-23T11:54:45.239Z,33.83
2023-01-23T11:57:19.797Z,32.28
2023-01-23T12:00:02.225Z,35.35
2023-01-23T12:02:58.632Z,31.52
2023-01-23T12:05:46.532Z,32.90
2023-01-23T12:08:27.228Z,32.22
2023-01-23T12:11:10.728Z,38.03
2023-01-23T12:13:57.023Z,30.73
2023-01-23T12:16:35.764Z,35.72
2023-01-23T12:19:18.296Z,26.13
2023-01-23T12:21:56.160Z,29.23
2023-01-23T12:24:36.258Z,32.65
2023-01-23T12:27:15.941Z,31.58
2023-01-23T12:30:17.202Z,34.15
2023-01-23T12:33:00.217Z,35.53
2023-01-23T12:35:36.742Z,31.20
2023-01-23T12:38:16.868Z,29.95
2023-01-23T12:40:48.705Z,32.25
2023-01-23T12:43:23.069Z,31.08
2023-01-23T12:45:59.903Z,32.10
2023-01-23T12:48:33.400Z,32.90
2023-01-23T12:51:07.564Z,29.13
2023-01-23T12:53:42.168Z,31.08
2023-01-23T12:56:15.385Z,30.23
2023-01-23T12:58:49.358Z,32.83
2023-01-23T13:01:41.929Z,33.13
2023-01-23T13:04:25.069Z,31.23
2023-01-23T13:07:04.359Z,32.78
2023-01-23T13:09:50.911Z,30.83
2023-01-23T13:12:22.804Z,29.02
2023-01-23T13:17:44.232Z,34.13
2023-01-23T13:20:42.290Z,27.35
2023-01-23T13:23:24.767Z,28.13
2023-01-23T13:26:36.950Z,28.95
2023-01-23T13:29:07.568Z,24.15
2023-01-23T13:31:40.598Z,30.05
2023-01-23T13:34:38.055Z,28.95
2023-01-23T13:37:51.350Z,28.48
2023-01-23T13:40:22.848Z,28.17
2023-01-23T13:42:52.316Z,41.72
2023-01-23T13:45:27.476Z,23.75
2023-01-23T14:22:45.952Z,35.45
2023-01-23T14:25:18.656Z,32.42
2023-01-23T14:27:53.681Z,32.28
2023-01-23T14:30:26.785Z,40.25
2023-01-23T14:32:58.259Z,33.60
2023-01-23T14:35:28.206Z,35.33
2023-01-23T14:37:59.133Z,36.28
2023-01-23T14:40:31.791Z,34.67
2023-01-23T14:43:07.855Z,33.45
2023-01-23T14:45:36.736Z,33.13
2023-01-23T14:48:08.576Z,45.38
2023-01-23T14:53:07.598Z,38.15
2023-01-23T14:55:40.717Z,37.60
2023-01-23T14:58:14.845Z,37.20
2023-01-23T15:00:43.432Z,39.13
2023-01-23T15:03:34.333Z,36.83
2023-01-23T15:06:07.121Z,39.92
2023-01-23T15:08:36.048Z,36.67
2023-01-23T15:11:06.505Z,37.80
2023-01-23T15:13:41.715Z,38.50
2023-01-23T15:16:15.572Z,33.92
2023-01-23T15:18:54.293Z,36.88
2023-01-23T15:21:34.680Z,34.50
2023-01-23T15:24:20.372Z,34.78
2023-01-23T15:26:59.219Z,42.15
2023-01-23T15:29:27.132Z,47.40
2023-01-23T15:31:56.237Z,35.13
2023-01-23T15:34:28.350Z,40.85
2023-01-23T15:37:05.371Z,38.35
2023-01-23T15:39:36.087Z,39.97
2023-01-23T15:42:09.503Z,40.75
2023-01-23T15:44:37.337Z,35.60
2023-01-23T15:47:05.275Z,35.65
2023-01-23T15:49:36.150Z,36.53
2023-01-23T15:52:18.259Z,34.33
2023-01-23T15:57:15.222Z,36.40
2023-01-23T15:59:43.285Z,41.75
2023-01-23T16:02:29.667Z,39.13
2023-01-23T16:05:01.065Z,38.33
2023-01-23T16:07:34.815Z,39.30
2023-01-23T16:10:04.268Z,40.00
2023-01-23T16:12:32.843Z,36.97
2023-01-23T16:15:00.719Z,34.50
2023-01-23T16:17:28.540Z,37.67
2023-01-23T16:19:56.325Z,34.00
2023-01-23T16:22:29.214Z,38.50
2023-01-23T16:24:58.728Z,40.50
2023-01-23T16:27:27.916Z,36.75
2023-01-23T16:29:56.902Z,51.13
2023-01-23T16:32:25.257Z,34.38
2023-01-23T16:34:53.106Z,40.05
2023-01-23T16:37:20.971Z,33.10
2023-01-23T16:39:50.149Z,39.30
2023-01-23T16:42:21.740Z,31.33
2023-01-23T16:44:49.650Z,39.25
2023-01-23T16:47:17.838Z,33.20
2023-01-23T16:49:54.189Z,34.30
2023-01-23T16:52:25.701Z,37.83
2023-01-23T16:54:55.941Z,30.33
2023-01-23T16:57:24.661Z,32.67
2023-01-23T16:59:53.200Z,33.65
2023-01-23T17:02:23.802Z,31.35
2023-01-23T17:04:51.788Z,33.55
2023-01-23T17:07:21.188Z,31.67
2023-01-23T17:09:49.350Z,30.15
2023-01-23T17:12:22.983Z,29.23
2023-01-23T17:14:52.744Z,33.15
2023-01-23T17:17:27.011Z,29.65
2023-01-23T17:19:55.178Z,31.17
2023-01-23T17:22:26.311Z,31.58
2023-01-23T17:24:54.693Z,29.87
2023-01-23T17:27:23.937Z,30.00
2023-01-23T17:29:51.892Z,27.27
2023-01-23T17:32:27.901Z,29.33
2023-01-23T17:34:56.320Z,29.27
2023-01-23T17:37:24.898Z,28.75
2023-01-23T17:39:52.912Z,29.75
2023-01-23T17:42:21.999Z,29.58
2023-01-23T17:44:51.209Z,27.67
2023-01-23T17:47:19.529Z,32.75
2023-01-23T17:49:51.152Z,29.08
2023-01-23T17:52:20.415Z,27.73
2023-01-23T17:54:48.630Z,29.15
2023-01-23T17:57:16.466Z,34.45
2023-01-23T17:59:44.332Z,28.20
2023-01-23T18:02:25.129Z,28.38
2023-01-23T18:04:53.030Z,31.70
2023-01-23T18:07:20.781Z,29.35
2023-01-23T18:09:48.566Z,27.40
2023-01-23T18:12:22.158Z,27.77
2023-01-23T18:14:57.432Z,46.13
2023-01-23T18:17:37.672Z,30.13
2023-01-23T18:20:17.551Z,29.52
2023-01-23T18:22:45.896Z,30.30
2023-01-23T18:25:15.698Z,31.13
2023-01-23T18:27:43.958Z,28.15
2023-01-23T18:30:31.223Z,30.63
2023-01-23T18:33:19.812Z,30.38
2023-01-23T18:36:12.436Z,30.85
2023-01-23T18:38:54.723Z,28.10
2023-01-23T18:41:24.899Z,31.85
2023-01-23T18:44:02.443Z,32.00
2023-01-23T18:46:30.655Z,28.75
2023-01-23T18:49:00.794Z,28.38
2023-01-23T18:51:38.428Z,30.33
2023-01-23T18:54:21.179Z,30.83
2023-01-23T18:56:58.920Z,29.35
2023-01-23T18:59:37.348Z,31.63
2023-01-23T19:02:17.588Z,26.88
2023-01-23T19:04:52.655Z,34.08
2023-01-23T19:07:21.199Z,30.33
2023-01-23T19:09:49.568Z,31.85
2023-01-23T19:12:28.200Z,30.38
2023-01-23T19:15:20.320Z,30.75
2023-01-23T19:17:52.429Z,29.38
2023-01-23T19:23:03.207Z,28.77
2023-01-23T19:25:31.575Z,30.98
2023-01-23T19:28:01.722Z,30.42
2023-01-23T19:30:30.398Z,31.50
2023-01-23T19:32:58.196Z,31.30
2023-01-23T19:35:27.639Z,31.33
2023-01-23T19:37:55.745Z,30.77
2023-01-23T19:40:23.575Z,31.88
2023-01-23T19:43:05.696Z,30.95
2023-01-23T19:45:41.152Z,31.70
2023-01-23T19:48:08.990Z,29.77
2023-01-23T19:50:38.822Z,33.92
2023-01-23T19:53:07.169Z,33.88
2023-01-23T19:55:38.136Z,33.83
2023-01-23T19:58:06.567Z,35.03
2023-01-23T20:00:36.170Z,30.98
2023-01-23T20:03:04.912Z,32.78
2023-01-23T20:05:33.155Z,31.65
2023-01-23T20:08:02.274Z,35.63
2023-01-23T20:10:30.156Z,36.13
2023-01-23T20:12:57.858Z,32.58
2023-01-23T20:15:26.911Z,34.25
2023-01-23T20:17:55.479Z,30.65
2023-01-23T20:20:24.069Z,33.50
2023-01-23T20:22:52.087Z,33.50
2023-01-23T20:25:21.532Z,32.05
2023-01-23T20:27:49.618Z,33.88
2023-01-23T20:30:20.017Z,35.00
2023-01-23T20:32:47.974Z,40.53
2023-01-23T20:35:15.822Z,32.08
2023-01-23T20:37:43.590Z,32.90
2023-01-23T20:40:12.917Z,32.10
2023-01-23T20:42:42.083Z,33.20
2023-01-23T20:45:10.831Z,32.65
2023-01-23T20:47:38.792Z,31.85
2023-01-23T20:50:07.465Z,33.60
2023-01-23T20:52:52.891Z,31.75
2023-01-23T20:55:20.927Z,30.67
2023-01-23T20:58:04.135Z,36.15
2023-01-23T21:00:31.848Z,29.40
2023-01-23T21:02:59.764Z,34.67
2023-01-23T21:05:27.632Z,32.95
2023-01-23T21:07:55.462Z,33.03
2023-01-23T21:10:23.351Z,34.10
2023-01-23T21:12:52.451Z,32.05
2023-01-23T21:15:20.600Z,29.67
2023-01-23T21:17:48.548Z,31.65
2023-01-23T21:20:17.049Z,28.35
2023-01-23T21:22:44.797Z,32.45
2023-01-23T21:25:13.119Z,32.75
2023-01-23T21:27:40.884Z,28.83
2023-01-23T21:30:11.672Z,32.60
2023-01-23T21:32:39.912Z,31.33
2023-01-23T21:35:08.126Z,31.65
2023-01-23T21:37:36.399Z,32.28
2023-01-23T21:40:04.778Z,29.38
2023-01-23T21:42:32.508Z,32.75
2023-01-23T21:45:00.303Z,30.38
2023-01-23T21:47:29.470Z,31.35
2023-01-23T21:49:57.190Z,34.97
2023-01-23T21:52:25.070Z,32.10
2023-01-23T21:54:54.311Z,34.03
2023-01-23T21:57:23.120Z,33.78
2023-01-23T22:00:04.728Z,34.70
2023-01-23T22:02:34.013Z,31.48
2023-01-23T22:05:01.853Z,31.70
2023-01-23T22:07:29.639Z,29.92
2023-01-23T22:09:57.454Z,33.38
2023-01-23T22:12:27.278Z,34.47
2023-01-23T22:14:55.831Z,32.20
2023-01-23T22:17:23.732Z,35.13
2023-01-23T22:19:52.965Z,33.75
2023-01-23T22:22:20.792Z,31.48
2023-01-23T22:24:48.615Z,28.42
2023-01-23T22:27:16.415Z,26.00
2023-01-23T22:29:44.599Z,30.35
2023-01-23T22:32:12.406Z,27.38
2023-01-23T22:34:40.208Z,26.92
2023-01-23T22:37:09.344Z,30.15
2023-01-23T22:39:37.078Z,29.52
2023-01-23T22:42:05.329Z,28.48
2023-01-23T22:44:33.144Z,26.83
2023-01-23T22:47:01.073Z,30.85
2023-01-23T22:49:28.921Z,32.17
2023-01-23T22:51:56.644Z,28.65
2023-01-23T22:54:25.792Z,28.60
2023-01-23T22:56:53.495Z,27.20
2023-01-23T22:59:21.275Z,26.02
2023-01-23T23:01:49.336Z,29.58
2023-01-23T23:04:17.040Z,31.08
2023-01-23T23:06:45.062Z,28.25
2023-01-23T23:09:12.940Z,29.38
2023-01-23T23:11:42.301Z,27.38
2023-01-23T23:14:11.804Z,29.25
2023-01-23T23:16:40.817Z,30.25
2023-01-23T23:19:09.707Z,28.80
2023-01-23T23:21:38.642Z,27.13
2023-01-23T23:24:08.991Z,27.73
2023-01-23T23:26:37.194Z,25.98
2023-01-23T23:29:06.476Z,29.83
2023-01-23T23:31:34.611Z,23.73
2023-01-23T23:34:02.635Z,28.05
2023-01-23T23:36:31.116Z,27.02
2023-01-23T23:38:59.010Z,25.90
2023-01-23T23:41:26.972Z,27.35
2023-01-23T23:43:54.719Z,26.70
2023-01-23T23:46:23.964Z,25.58
2023-01-23T23:48:52.119Z,30.48
2023-01-23T23:51:22.851Z,24.80
2023-01-23T23:53:51.267Z,25.25
2023-01-23T23:56:21.971Z,29.17
2023-01-23T23:58:50.121Z,28.67
